Time;durP1;ratioP1;P1;durP2;ratioP2;P2;SDS_P1;SDS_P2;PMS_P1;PMS_P2;Temp;Humidity;BMP_temperature;BMP_pressure;BME280_temperature;BME280_humidity;BME280_pressure;Samples;Min_cycle;Max_cycle;Signal;HPM_P1;HPM_P2
2022/03/08 00:01:56;;;;;;;;;;;0.90;44.40;;;;;;5034360;28;19931;-71
2022/03/08 00:04:24;;;;;;;;;;;0.90;44.50;;;;;;5031519;28;20047;-70
2022/03/08 00:06:50;;;;;;;;;;;0.80;44.30;;;;;;5034187;28;19940;-71
2022/03/08 00:09:17;;;;;;;;;;;0.80;44.70;;;;;;5032206;28;19935;-71
2022/03/08 00:11:44;;;;;;;;;;;0.70;45.40;;;;;;5033790;28;19925;-71
2022/03/08 00:14:12;;;;;;;;;;;0.70;45.10;;;;;;5031980;28;20738;-71
2022/03/08 00:16:39;;;;;;;;;;;0.70;45.20;;;;;;5034372;28;20388;-71
2022/03/08 00:19:06;;;;;;;;;;;0.70;45.60;;;;;;5032443;28;19929;-71
2022/03/08 00:21:32;;;;;;;;;;;0.70;45.50;;;;;;5033997;28;20024;-70
2022/03/08 00:23:59;;;;;;;;;;;0.60;45.50;;;;;;5032179;28;19929;-70
2022/03/08 00:26:26;;;;;;;;;;;0.70;45.90;;;;;;5032829;28;20015;-70
2022/03/08 00:28:52;;;;;;;;;;;0.60;45.80;;;;;;5032499;28;19932;-70
2022/03/08 00:31:20;;;;;;;;;;;0.60;45.90;;;;;;5032614;28;20023;-70
2022/03/08 00:33:47;;;;;;;;;;;0.60;46.20;;;;;;5033002;28;19925;-71
2022/03/08 00:36:14;;;;;;;;;;;0.60;46.20;;;;;;5034878;28;19972;-72
2022/03/08 00:38:40;;;;;;;;;;;0.60;46.60;;;;;;5035479;28;20016;-70
2022/03/08 00:41:07;;;;;;;;;;;0.50;46.60;;;;;;5035266;28;19925;-70
2022/03/08 00:43:34;;;;;;;;;;;0.50;46.50;;;;;;5032949;28;20019;-70
2022/03/08 00:46:01;;;;;;;;;;;0.50;46.50;;;;;;5033691;28;19983;-71
2022/03/08 00:48:29;;;;;;;;;;;0.50;46.30;;;;;;5033674;28;19925;-71
2022/03/08 00:50:55;;;;;;;;;;;0.60;45.90;;;;;;5032612;28;19931;-71
2022/03/08 00:53:22;;;;;;;;;;;0.50;45.80;;;;;;5033176;28;20416;-71
2022/03/08 00:55:49;;;;;;;;;;;0.50;45.70;;;;;;5032264;28;19925;-71
2022/03/08 00:58:15;;;;;;;;;;;0.40;46.00;;;;;;5033180;28;19925;-71
2022/03/08 01:00:42;;;;;;;;;;;0.30;46.50;;;;;;5032055;28;19931;-71
2022/03/08 01:03:09;;;;;;;;;;;0.30;46.50;;;;;;5033490;28;19925;-71
2022/03/08 01:05:37;;;;;;;;;;;0.30;46.60;;;;;;5032527;28;19926;-70
2022/03/08 01:08:05;;;;;;;;;;;0.30;46.90;;;;;;5033448;28;20286;-71
2022/03/08 01:10:32;;;;;;;;;;;0.20;47.30;;;;;;5031864;28;20450;-71
2022/03/08 01:12:58;;;;;;;;;;;0.10;47.40;;;;;;5033041;28;20016;-71
2022/03/08 01:15:25;;;;;;;;;;;0.10;47.60;;;;;;5031290;28;19925;-71
2022/03/08 01:17:52;;;;;;;;;;;0.00;47.60;;;;;;5032419;28;19929;-72
2022/03/08 01:20:19;;;;;;;;;;;-0.10;48.00;;;;;;5030755;28;19972;-71
2022/03/08 01:22:48;;;;;;;;;;;-0.30;48.20;;;;;;5032958;28;19925;-71
2022/03/08 01:25:16;;;;;;;;;;;-0.50;48.30;;;;;;5030931;28;19925;-72
2022/03/08 01:27:43;;;;;;;;;;;-0.50;49.30;;;;;;5032197;28;20478;-71
2022/03/08 01:30:11;;;;;;;;;;;-0.40;50.00;;;;;;5031979;28;19932;-71
2022/03/08 01:32:38;;;;;;;;;;;-0.50;49.90;;;;;;5032469;28;20023;-74
2022/03/08 01:35:05;;;;;;;;;;;-0.50;50.10;;;;;;5030251;28;19925;-71
2022/03/08 01:37:32;;;;;;;;;;;-0.40;50.30;;;;;;5032916;28;19925;-71
2022/03/08 01:40:00;;;;;;;;;;;-0.40;50.10;;;;;;5031185;28;20434;-71
2022/03/08 01:42:27;;;;;;;;;;;-0.40;50.40;;;;;;5032173;28;19925;-72
2022/03/08 01:44:54;;;;;;;;;;;-0.40;50.40;;;;;;5032291;28;20023;-71
2022/03/08 01:47:22;;;;;;;;;;;-0.40;50.50;;;;;;5033364;28;20291;-71
2022/03/08 01:49:49;;;;;;;;;;;-0.40;50.50;;;;;;5029614;28;19925;-71
2022/03/08 01:52:16;;;;;;;;;;;-0.40;50.70;;;;;;5031976;28;19999;-71
2022/03/08 01:54:44;;;;;;;;;;;-0.50;50.70;;;;;;5030928;28;19925;-71
2022/03/08 01:57:13;;;;;;;;;;;-0.50;51.00;;;;;;5031078;28;19956;-71
2022/03/08 01:59:39;;;;;;;;;;;-0.50;51.10;;;;;;5020075;28;19925;-71
2022/03/08 02:02:06;;;;;;;;;;;-0.60;51.20;;;;;;5032237;28;20398;-71
2022/03/08 02:04:33;;;;;;;;;;;-0.60;51.30;;;;;;5030404;28;19973;-71
2022/03/08 02:07:00;;;;;;;;;;;-0.60;51.40;;;;;;5032094;28;20292;-71
2022/03/08 02:09:27;;;;;;;;;;;-0.60;51.60;;;;;;5030824;28;20023;-71
2022/03/08 02:11:53;;;;;;;;;;;-0.60;51.70;;;;;;5032438;28;19929;-71
2022/03/08 02:14:21;;;;;;;;;;;-0.60;51.70;;;;;;5031059;28;19925;-71
2022/03/08 02:16:48;;;;;;;;;;;-0.60;51.70;;;;;;5031369;28;19931;-71
2022/03/08 02:19:15;;;;;;;;;;;-0.60;51.70;;;;;;5033672;28;20007;-76
2022/03/08 02:21:44;;;;;;;;;;;-0.60;51.80;;;;;;5035210;28;19979;-71
2022/03/08 02:24:11;;;;;;;;;;;-0.60;52.00;;;;;;5032264;28;19925;-71
2022/03/08 02:26:37;;;;;;;;;;;-0.70;52.10;;;;;;5034362;28;19925;-72
2022/03/08 02:29:06;;;;;;;;;;;-0.70;52.30;;;;;;5034092;28;19936;-72
2022/03/08 02:31:32;;;;;;;;;;;-0.60;52.30;;;;;;5037761;28;20443;-72
2022/03/08 02:33:59;;;;;;;;;;;-0.60;52.30;;;;;;5034378;28;19935;-71
2022/03/08 02:36:26;;;;;;;;;;;-0.70;52.60;;;;;;5037189;28;20024;-71
2022/03/08 02:38:54;;;;;;;;;;;-0.70;52.70;;;;;;5034912;28;20311;-71
2022/03/08 02:41:20;;;;;;;;;;;-0.70;52.70;;;;;;5036702;28;20012;-71
2022/03/08 02:43:47;;;;;;;;;;;-0.70;52.70;;;;;;5037737;28;20376;-72
2022/03/08 02:46:14;;;;;;;;;;;-0.70;52.90;;;;;;5042304;28;20011;-72
2022/03/08 02:48:40;;;;;;;;;;;-0.70;52.90;;;;;;5036565;28;19925;-72
2022/03/08 02:51:07;;;;;;;;;;;-0.70;53.00;;;;;;5041120;28;20015;-72
2022/03/08 02:53:33;;;;;;;;;;;-0.80;53.00;;;;;;5034802;28;19925;-71
2022/03/08 02:56:02;;;;;;;;;;;-0.80;53.10;;;;;;5033666;28;19925;-71
2022/03/08 02:58:28;;;;;;;;;;;-0.80;53.30;;;;;;5036094;28;19947;-71
2022/03/08 03:00:55;;;;;;;;;;;-0.90;53.40;;;;;;5035296;28;19947;-71
2022/03/08 03:03:22;;;;;;;;;;;-0.90;53.70;;;;;;5035055;28;19932;-71
2022/03/08 03:05:48;;;;;;;;;;;-1.00;53.90;;;;;;5035426;28;20016;-71
2022/03/08 03:08:15;;;;;;;;;;;-1.00;54.00;;;;;;5037145;28;19929;-71
2022/03/08 03:10:42;;;;;;;;;;;-1.00;54.30;;;;;;5037063;28;20024;-71
2022/03/08 03:13:10;;;;;;;;;;;-1.10;54.50;;;;;;5037652;28;19931;-71
2022/03/08 03:15:36;;;;;;;;;;;-1.10;54.60;;;;;;5032009;28;19947;-71
2022/03/08 03:18:08;;;;;;;;;;;-1.10;54.90;;;;;;5035641;28;19976;-71
2022/03/08 03:20:35;;;;;;;;;;;-1.10;55.10;;;;;;5033907;28;20388;-72
2022/03/08 03:23:02;;;;;;;;;;;-1.10;55.50;;;;;;5035092;28;19996;-69
2022/03/08 03:25:28;;;;;;;;;;;-1.10;55.40;;;;;;5033708;28;19925;-70
2022/03/08 03:27:55;;;;;;;;;;;-1.10;55.40;;;;;;5034856;28;20017;-70
2022/03/08 03:30:23;;;;;;;;;;;-1.10;55.50;;;;;;5032563;28;20285;-70
2022/03/08 03:32:50;;;;;;;;;;;-1.30;56.00;;;;;;5034416;28;19925;-70
2022/03/08 03:35:17;;;;;;;;;;;-1.40;56.20;;;;;;5032904;28;20351;-70
2022/03/08 03:37:44;;;;;;;;;;;-1.40;56.50;;;;;;5034430;28;20292;-70
2022/03/08 03:40:11;;;;;;;;;;;-1.50;56.40;;;;;;5033203;28;19965;-72
2022/03/08 03:42:38;;;;;;;;;;;-1.70;56.40;;;;;;5034422;28;19925;-70
2022/03/08 03:45:06;;;;;;;;;;;-1.80;57.00;;;;;;5032721;28;19925;-70
2022/03/08 03:47:34;;;;;;;;;;;-1.70;57.70;;;;;;5035117;28;19961;-70
2022/03/08 03:50:01;;;;;;;;;;;-1.80;58.00;;;;;;5034302;28;19995;-72
2022/03/08 03:52:28;;;;;;;;;;;-1.80;58.30;;;;;;5035651;28;20020;-71
2022/03/08 03:54:54;;;;;;;;;;;-1.90;58.60;;;;;;5032776;28;19983;-73
2022/03/08 03:57:21;;;;;;;;;;;-2.00;58.90;;;;;;5033661;28;20414;-72
2022/03/08 03:59:48;;;;;;;;;;;-2.00;59.50;;;;;;5032906;28;19939;-72
2022/03/08 04:02:15;;;;;;;;;;;-2.10;59.80;;;;;;5033984;28;20032;-72
2022/03/08 04:04:43;;;;;;;;;;;-2.00;60.80;;;;;;5031827;28;19925;-72
2022/03/08 04:07:09;;;;;;;;;;;-1.90;62.60;;;;;;5034176;28;19925;-72
2022/03/08 04:09:36;;;;;;;;;;;-2.00;63.80;;;;;;5033236;28;20005;-72
2022/03/08 04:12:03;;;;;;;;;;;-2.10;65.30;;;;;;5033507;28;20008;-71
2022/03/08 04:14:29;;;;;;;;;;;-2.10;66.40;;;;;;5032179;28;20016;-72
2022/03/08 04:16:56;;;;;;;;;;;-2.10;67.20;;;;;;5033771;28;19980;-72
2022/03/08 04:19:23;;;;;;;;;;;-2.10;67.40;;;;;;5032697;28;20087;-72
2022/03/08 04:21:51;;;;;;;;;;;-2.20;67.90;;;;;;5033753;28;19931;-72
2022/03/08 04:24:17;;;;;;;;;;;-2.30;68.30;;;;;;5031420;28;20359;-72
2022/03/08 04:26:44;;;;;;;;;;;-2.30;69.30;;;;;;5034278;28;19925;-72
2022/03/08 04:29:11;;;;;;;;;;;-2.50;70.10;;;;;;5032889;28;19925;-70
2022/03/08 04:31:37;;;;;;;;;;;-2.50;71.50;;;;;;5034522;28;20015;-71
2022/03/08 04:34:04;;;;;;;;;;;-2.40;73.30;;;;;;5033116;28;20460;-70
2022/03/08 04:36:31;;;;;;;;;;;-2.30;73.50;;;;;;5033815;28;20027;-71
2022/03/08 04:38:59;;;;;;;;;;;-2.40;74.60;;;;;;5032469;28;20402;-71
2022/03/08 04:41:26;;;;;;;;;;;-2.50;75.70;;;;;;5033560;28;19936;-71
2022/03/08 04:43:53;;;;;;;;;;;-2.60;76.40;;;;;;5032408;28;20394;-72
2022/03/08 04:46:20;;;;;;;;;;;-2.70;77.20;;;;;;5033638;28;19925;-71
2022/03/08 04:48:46;;;;;;;;;;;-2.50;80.30;;;;;;5032414;28;20403;-71
2022/03/08 04:51:13;;;;;;;;;;;-2.50;81.90;;;;;;5033023;28;19931;-71
2022/03/08 04:53:40;;;;;;;;;;;-2.60;82.50;;;;;;5030516;28;19939;-70
2022/03/08 04:56:08;;;;;;;;;;;-2.60;83.70;;;;;;5033109;28;20334;-71
2022/03/08 04:58:35;;;;;;;;;;;-2.50;84.20;;;;;;5032742;28;19925;-71
2022/03/08 05:01:01;;;;;;;;;;;-2.50;85.40;;;;;;5033152;28;20388;-71
2022/03/08 05:03:28;;;;;;;;;;;-2.50;89.60;;;;;;5034264;28;19929;-70
2022/03/08 05:05:55;;;;;;;;;;;-2.60;89.20;;;;;;5032141;28;19932;-71
2022/03/08 05:08:21;;;;;;;;;;;-2.60;89.40;;;;;;5033372;28;20023;-71
2022/03/08 05:10:48;;;;;;;;;;;-2.50;88.40;;;;;;5032240;28;20012;-70
2022/03/08 05:13:16;;;;;;;;;;;-2.50;87.70;;;;;;5032347;28;19929;-70
2022/03/08 05:15:44;;;;;;;;;;;-2.40;86.90;;;;;;5031746;28;19925;-70
2022/03/08 05:18:10;;;;;;;;;;;-2.30;85.70;;;;;;5033032;28;19925;-70
2022/03/08 05:20:37;;;;;;;;;;;-2.20;84.60;;;;;;5031235;28;20399;-70
2022/03/08 05:23:04;;;;;;;;;;;-2.10;85.20;;;;;;5032977;28;19931;-71
2022/03/08 05:25:31;;;;;;;;;;;-2.10;84.90;;;;;;5032076;28;20372;-71
2022/03/08 05:27:57;;;;;;;;;;;-2.00;83.30;;;;;;5033220;28;19951;-70
2022/03/08 05:30:25;;;;;;;;;;;-2.00;83.00;;;;;;5032565;28;19925;-71
2022/03/08 05:32:52;;;;;;;;;;;-2.00;82.50;;;;;;5035986;28;19925;-71
2022/03/08 05:35:19;;;;;;;;;;;-2.00;82.20;;;;;;5035455;28;19971;-71
2022/03/08 05:37:46;;;;;;;;;;;-2.00;82.50;;;;;;5036032;28;19925;-70
2022/03/08 05:40:12;;;;;;;;;;;-2.00;82.60;;;;;;5032840;28;19945;-70
2022/03/08 05:42:39;;;;;;;;;;;-2.00;82.90;;;;;;5032879;28;19925;-70
2022/03/08 05:45:07;;;;;;;;;;;-2.00;83.10;;;;;;5032290;28;19932;-70
2022/03/08 05:47:35;;;;;;;;;;;-2.10;83.30;;;;;;5031829;28;19979;-70
2022/03/08 05:50:02;;;;;;;;;;;-2.00;84.10;;;;;;5031548;28;19925;-70
2022/03/08 05:52:29;;;;;;;;;;;-2.10;84.20;;;;;;5032568;28;19931;-70
2022/03/08 05:54:56;;;;;;;;;;;-2.10;84.20;;;;;;5031858;28;20029;-70
2022/03/08 05:57:22;;;;;;;;;;;-2.10;83.90;;;;;;5031348;28;20000;-70
2022/03/08 05:59:49;;;;;;;;;;;-2.00;84.00;;;;;;5029973;28;20404;-70
2022/03/08 06:02:16;;;;;;;;;;;-2.10;83.90;;;;;;5027781;28;19926;-70
2022/03/08 06:04:44;;;;;;;;;;;-2.10;83.90;;;;;;5033905;28;20016;-70
2022/03/08 06:07:11;;;;;;;;;;;-2.00;84.00;;;;;;5036515;28;19932;-71
2022/03/08 06:09:38;;;;;;;;;;;-2.10;83.90;;;;;;5035202;28;19932;-70
2022/03/08 06:12:05;;;;;;;;;;;-2.00;84.20;;;;;;5036416;28;20000;-71
2022/03/08 06:14:32;;;;;;;;;;;-2.10;84.10;;;;;;5027157;28;19926;-70
2022/03/08 06:16:58;;;;;;;;;;;-2.10;84.10;;;;;;5016122;28;20333;-71
2022/03/08 06:19:25;;;;;;;;;;;-2.10;84.00;;;;;;5022152;28;20399;-71
2022/03/08 06:21:53;;;;;;;;;;;-2.10;84.10;;;;;;5038872;28;19932;-71
2022/03/08 06:24:20;;;;;;;;;;;-2.10;84.20;;;;;;5037121;28;19982;-71
2022/03/08 06:26:47;;;;;;;;;;;-2.10;84.30;;;;;;5038655;28;19995;-71
2022/03/08 06:29:13;;;;;;;;;;;-2.00;84.40;;;;;;5035975;28;19925;-70
2022/03/08 06:31:40;;;;;;;;;;;-2.10;84.50;;;;;;5035994;28;19925;-71
2022/03/08 06:34:07;;;;;;;;;;;-2.00;84.70;;;;;;5034649;28;20008;-70
2022/03/08 06:36:34;;;;;;;;;;;-2.00;84.80;;;;;;5035763;28;20335;-70
2022/03/08 06:39:02;;;;;;;;;;;-2.10;84.70;;;;;;5035612;28;19933;-71
2022/03/08 06:41:29;;;;;;;;;;;-2.00;84.60;;;;;;5036243;28;19925;-70
2022/03/08 06:43:55;;;;;;;;;;;-2.00;84.50;;;;;;5039557;28;19937;-72
2022/03/08 06:46:22;;;;;;;;;;;-1.90;84.40;;;;;;5042338;28;20016;-71
2022/03/08 06:48:49;;;;;;;;;;;-1.80;84.50;;;;;;5041106;28;19947;-71
2022/03/08 06:51:16;;;;;;;;;;;-1.80;84.20;;;;;;5036583;28;20012;-71
2022/03/08 06:53:42;;;;;;;;;;;-1.80;84.30;;;;;;5034181;28;19932;-71
2022/03/08 06:56:10;;;;;;;;;;;-1.80;84.10;;;;;;5035614;28;19995;-70
2022/03/08 06:58:37;;;;;;;;;;;-1.80;84.10;;;;;;5034067;28;20337;-71
2022/03/08 07:01:04;;;;;;;;;;;-1.70;84.10;;;;;;5035461;28;20329;-73
2022/03/08 07:03:31;;;;;;;;;;;-1.60;83.90;;;;;;5035516;28;20392;-71
2022/03/08 07:05:57;;;;;;;;;;;-1.60;83.80;;;;;;5031646;28;20111;-71
2022/03/08 07:08:24;;;;;;;;;;;-1.60;83.50;;;;;;5033740;28;19983;-74
2022/03/08 07:10:51;;;;;;;;;;;-1.50;83.20;;;;;;5033279;28;19932;-72
2022/03/08 07:13:19;;;;;;;;;;;-1.50;83.40;;;;;;5035471;28;19929;-71
2022/03/08 07:15:46;;;;;;;;;;;-1.40;83.10;;;;;;5032613;28;19925;-71
2022/03/08 07:18:12;;;;;;;;;;;-1.40;82.50;;;;;;5034622;28;19925;-70
2022/03/08 07:20:39;;;;;;;;;;;-1.30;82.50;;;;;;5032826;28;19925;-71
2022/03/08 07:23:06;;;;;;;;;;;-1.20;82.30;;;;;;5036613;28;20274;-71
2022/03/08 07:25:34;;;;;;;;;;;-1.10;81.90;;;;;;5032826;28;19929;-71
2022/03/08 07:28:01;;;;;;;;;;;-1.10;81.50;;;;;;5033617;28;19925;-71
2022/03/08 07:30:29;;;;;;;;;;;-1.00;80.90;;;;;;5033672;28;19925;-70
2022/03/08 07:32:55;;;;;;;;;;;-1.00;80.80;;;;;;5034507;28;19925;-71
2022/03/08 07:35:22;;;;;;;;;;;-0.80;80.40;;;;;;5031327;28;20019;-70
2022/03/08 07:37:49;;;;;;;;;;;-0.80;80.00;;;;;;5034822;28;20024;-70
2022/03/08 07:40:15;;;;;;;;;;;-0.70;79.90;;;;;;5032909;28;19931;-71
2022/03/08 07:42:43;;;;;;;;;;;-0.70;79.30;;;;;;5034241;28;20019;-70
2022/03/08 07:45:10;;;;;;;;;;;-0.60;79.10;;;;;;5033341;28;20299;-71
2022/03/08 07:47:39;;;;;;;;;;;-0.50;78.50;;;;;;5034630;28;19925;-71
2022/03/08 07:50:06;;;;;;;;;;;-0.50;78.00;;;;;;5034167;28;19925;-71
2022/03/08 07:52:33;;;;;;;;;;;-0.30;77.40;;;;;;5034876;28;20443;-71
2022/03/08 07:55:00;;;;;;;;;;;-0.20;77.30;;;;;;5030178;28;20415;-71
2022/03/08 07:57:26;;;;;;;;;;;-0.20;76.40;;;;;;5033048;28;20935;-71
2022/03/08 07:59:53;;;;;;;;;;;0.00;76.90;;;;;;5033031;28;20440;-71
2022/03/08 08:02:21;;;;;;;;;;;1.20;73.90;;;;;;5034520;28;19925;-70
2022/03/08 08:04:49;;;;;;;;;;;3.00;65.90;;;;;;5032028;28;20339;-71
2022/03/08 08:07:15;;;;;;;;;;;3.80;58.30;;;;;;5034708;28;19971;-70
2022/03/08 08:09:42;;;;;;;;;;;4.10;53.60;;;;;;5032744;28;19930;-71
2022/03/08 08:12:09;;;;;;;;;;;4.40;53.70;;;;;;5033549;28;19925;-70
2022/03/08 08:14:36;;;;;;;;;;;4.90;51.40;;;;;;5032004;28;20380;-70
2022/03/08 08:17:02;;;;;;;;;;;4.90;49.80;;;;;;5032990;28;19925;-70
2022/03/08 08:19:29;;;;;;;;;;;4.70;49.70;;;;;;5032920;28;19925;-70
2022/03/08 08:21:57;;;;;;;;;;;5.70;46.70;;;;;;5034169;28;20018;-70
2022/03/08 08:24:24;;;;;;;;;;;5.70;45.70;;;;;;5031531;28;19925;-70
2022/03/08 08:26:51;;;;;;;;;;;5.90;43.70;;;;;;5033570;28;19926;-70
2022/03/08 08:29:17;;;;;;;;;;;6.00;43.50;;;;;;5029667;28;19979;-70
2022/03/08 08:31:46;;;;;;;;;;;5.90;42.70;;;;;;5032808;28;20296;-70
2022/03/08 08:34:13;;;;;;;;;;;6.20;42.00;;;;;;5032838;28;19980;-70
2022/03/08 08:36:39;;;;;;;;;;;5.00;43.50;;;;;;5032534;28;19932;-71
2022/03/08 08:39:07;;;;;;;;;;;5.10;45.10;;;;;;5032389;28;19932;-70
2022/03/08 08:41:34;;;;;;;;;;;5.70;42.80;;;;;;5033388;28;20314;-71
2022/03/08 08:44:01;;;;;;;;;;;5.60;42.00;;;;;;5032377;28;20004;-70
2022/03/08 08:46:27;;;;;;;;;;;5.60;41.30;;;;;;5029350;28;20320;-70
2022/03/08 08:48:54;;;;;;;;;;;5.40;40.90;;;;;;5032217;28;20388;-71
2022/03/08 08:51:21;;;;;;;;;;;6.20;40.80;;;;;;5033448;28;20478;-71
2022/03/08 08:53:47;;;;;;;;;;;6.40;38.40;;;;;;5030602;28;19925;-71
2022/03/08 08:56:15;;;;;;;;;;;7.00;37.00;;;;;;5033920;28;20427;-71
2022/03/08 08:58:42;;;;;;;;;;;7.30;33.50;;;;;;5033613;28;20012;-73
2022/03/08 09:01:09;;;;;;;;;;;7.00;33.70;;;;;;5015885;28;19971;-72
2022/03/08 09:03:35;;;;;;;;;;;6.20;36.00;;;;;;5013863;28;19933;-72
2022/03/08 09:06:02;;;;;;;;;;;6.80;35.50;;;;;;5034891;28;19925;-72
2022/03/08 09:08:29;;;;;;;;;;;7.70;33.10;;;;;;5034396;28;19971;-71
2022/03/08 09:10:55;;;;;;;;;;;7.20;34.00;;;;;;5031043;28;19925;-71
2022/03/08 09:13:24;;;;;;;;;;;7.30;33.10;;;;;;5031971;28;19925;-70
2022/03/08 09:15:51;;;;;;;;;;;7.80;31.00;;;;;;5031602;28;20008;-71
2022/03/08 09:18:17;;;;;;;;;;;8.30;29.10;;;;;;5032593;28;20443;-70
2022/03/08 09:20:44;;;;;;;;;;;9.80;26.30;;;;;;5030868;28;20297;-71
2022/03/08 09:23:11;;;;;;;;;;;9.30;25.40;;;;;;5032993;28;19925;-71
2022/03/08 09:25:38;;;;;;;;;;;9.60;23.90;;;;;;5031041;28;19929;-71
2022/03/08 09:28:06;;;;;;;;;;;10.40;22.20;;;;;;5033346;28;20374;-71
2022/03/08 09:30:35;;;;;;;;;;;9.90;21.60;;;;;;5032040;28;20450;-71
2022/03/08 09:33:02;;;;;;;;;;;10.30;20.80;;;;;;5032725;28;20307;-71
2022/03/08 09:35:29;;;;;;;;;;;9.50;21.60;;;;;;5030166;28;19929;-71
2022/03/08 09:37:56;;;;;;;;;;;10.00;20.80;;;;;;5030877;28;19925;-71
2022/03/08 09:40:23;;;;;;;;;;;10.20;20.30;;;;;;5030707;28;20357;-70
2022/03/08 09:42:50;;;;;;;;;;;11.20;18.20;;;;;;5032368;28;19937;-70
2022/03/08 09:45:17;;;;;;;;;;;10.70;18.10;;;;;;5030788;28;19925;-71
2022/03/08 09:47:45;;;;;;;;;;;10.20;17.60;;;;;;5032477;28;19936;-71
2022/03/08 09:50:12;;;;;;;;;;;10.10;18.10;;;;;;5030370;28;19932;-70
2022/03/08 09:52:43;;;;;;;;;;;8.30;21.20;;;;;;5032317;28;19937;-71
2022/03/08 09:55:12;;;;;;;;;;;7.00;23.80;;;;;;5030309;28;19931;-70
2022/03/08 09:57:39;;;;;;;;;;;6.20;25.80;;;;;;5031085;28;19925;-71
2022/03/08 10:00:06;;;;;;;;;;;5.60;26.50;;;;;;5031054;28;19932;-71
2022/03/08 10:02:48;;;;;;;;;;;5.60;27.20;;;;;;5032522;28;19932;-70
2022/03/08 10:05:15;;;;;;;;;;;5.60;27.20;;;;;;5030741;28;19932;-70
2022/03/08 10:08:01;;;;;;;;;;;5.80;26.20;;;;;;5028129;28;19971;-71
2022/03/08 10:10:30;;;;;;;;;;;6.00;25.30;;;;;;5027299;28;20117;-70
2022/03/08 10:12:57;;;;;;;;;;;6.20;24.90;;;;;;5032489;28;19932;-71
2022/03/08 10:15:23;;;;;;;;;;;6.30;24.50;;;;;;5031072;28;19925;-71
2022/03/08 10:17:52;;;;;;;;;;;6.10;23.80;;;;;;5032294;28;19931;-70
2022/03/08 10:20:28;;;;;;;;;;;6.10;24.60;;;;;;5030109;28;19929;-71
2022/03/08 10:22:54;;;;;;;;;;;6.20;24.60;;;;;;5032393;28;20281;-71
2022/03/08 10:25:22;;;;;;;;;;;6.30;23.90;;;;;;5032302;28;20402;-72
2022/03/08 10:27:59;;;;;;;;;;;6.30;23.70;;;;;;5034150;28;20015;-72
2022/03/08 10:30:26;;;;;;;;;;;6.30;24.60;;;;;;5031196;28;19925;-71
2022/03/08 10:32:56;;;;;;;;;;;6.40;23.80;;;;;;5032515;28;19947;-70
2022/03/08 10:35:23;;;;;;;;;;;6.60;23.20;;;;;;5031126;28;20328;-70
2022/03/08 10:37:50;;;;;;;;;;;6.40;22.80;;;;;;5032246;28;19929;-69
2022/03/08 10:40:22;;;;;;;;;;;6.40;22.50;;;;;;5030255;28;19931;-69
2022/03/08 10:43:00;;;;;;;;;;;6.50;22.90;;;;;;5031250;28;19925;-70
2022/03/08 10:45:27;;;;;;;;;;;6.60;22.60;;;;;;5030314;28;19925;-70
2022/03/08 10:47:56;;;;;;;;;;;6.70;21.80;;;;;;5032189;28;19940;-71
2022/03/08 10:50:24;;;;;;;;;;;6.80;22.60;;;;;;5032901;28;19925;-70
2022/03/08 10:52:51;;;;;;;;;;;6.90;22.90;;;;;;5035743;28;19925;-71
2022/03/08 10:55:18;;;;;;;;;;;6.90;22.20;;;;;;5034135;28;20303;-71
2022/03/08 10:57:49;;;;;;;;;;;6.80;22.00;;;;;;5035674;28;19932;-71
2022/03/08 11:00:17;;;;;;;;;;;6.90;22.00;;;;;;5034180;28;19932;-71
2022/03/08 11:02:47;;;;;;;;;;;6.90;22.50;;;;;;5035167;28;19925;-71
2022/03/08 11:05:16;;;;;;;;;;;7.10;22.60;;;;;;5034287;28;20027;-69
2022/03/08 11:07:43;;;;;;;;;;;7.20;22.90;;;;;;5035496;28;19925;-71
2022/03/08 11:10:10;;;;;;;;;;;7.30;21.80;;;;;;5021686;28;19968;-70
2022/03/08 11:12:38;;;;;;;;;;;7.20;21.80;;;;;;5033924;28;19931;-70
2022/03/08 11:15:05;;;;;;;;;;;7.20;21.80;;;;;;5032991;28;20387;-70
2022/03/08 11:17:34;;;;;;;;;;;7.10;21.70;;;;;;5035097;28;19925;-70
2022/03/08 11:20:02;;;;;;;;;;;7.20;22.70;;;;;;5033957;28;20021;-70
2022/03/08 11:22:30;;;;;;;;;;;7.30;21.80;;;;;;5034671;28;20319;-70
2022/03/08 11:24:58;;;;;;;;;;;7.30;21.50;;;;;;5033956;28;20032;-70
2022/03/08 11:27:24;;;;;;;;;;;7.40;22.00;;;;;;5034848;28;20314;-70
2022/03/08 11:29:51;;;;;;;;;;;7.50;21.30;;;;;;5032164;28;20001;-71
2022/03/08 11:32:20;;;;;;;;;;;7.60;21.70;;;;;;5035196;28;20346;-71
2022/03/08 11:34:51;;;;;;;;;;;7.70;21.70;;;;;;5030723;28;19928;-70
2022/03/08 11:37:20;;;;;;;;;;;7.70;21.50;;;;;;5033632;28;19925;-70
2022/03/08 11:40:02;;;;;;;;;;;7.70;21.10;;;;;;5032981;28;19925;-71
2022/03/08 11:42:32;;;;;;;;;;;7.80;21.20;;;;;;5035237;28;19925;-75
2022/03/08 11:45:00;;;;;;;;;;;8.00;20.70;;;;;;5034972;28;19955;-72
2022/03/08 11:47:36;;;;;;;;;;;8.20;20.10;;;;;;5036866;28;20379;-70
2022/03/08 11:50:03;;;;;;;;;;;8.10;19.60;;;;;;5035879;28;20016;-74
2022/03/08 11:52:33;;;;;;;;;;;8.10;20.30;;;;;;5035683;28;19925;-71
2022/03/08 11:55:03;;;;;;;;;;;8.20;21.00;;;;;;5032328;28;20017;-70
2022/03/08 11:57:48;;;;;;;;;;;8.20;20.50;;;;;;5033989;28;19933;-70
2022/03/08 12:00:17;;;;;;;;;;;8.30;20.50;;;;;;5032576;28;19931;-70
2022/03/08 12:02:44;;;;;;;;;;;8.50;19.70;;;;;;5034128;28;20351;-71
2022/03/08 12:05:34;;;;;;;;;;;8.70;18.30;;;;;;5032037;28;19928;-71
2022/03/08 12:08:16;;;;;;;;;;;8.70;17.00;;;;;;5033939;28;19925;-71
2022/03/08 12:10:43;;;;;;;;;;;9.10;17.10;;;;;;5031485;28;20341;-70
2022/03/08 12:13:12;;;;;;;;;;;9.20;16.10;;;;;;5036419;28;19980;-71
2022/03/08 12:16:08;;;;;;;;;;;9.10;15.10;;;;;;5035944;28;20458;-71
2022/03/08 12:18:34;;;;;;;;;;;9.10;16.00;;;;;;5032955;28;19929;-70
2022/03/08 12:21:19;;;;;;;;;;;9.10;15.40;;;;;;5033718;28;19932;-70
2022/03/08 12:23:47;;;;;;;;;;;9.10;14.90;;;;;;5033731;28;19931;-71
2022/03/08 12:26:22;;;;;;;;;;;9.10;14.70;;;;;;5033715;28;20027;-71
2022/03/08 12:29:04;;;;;;;;;;;9.20;14.70;;;;;;5035307;28;19931;-70
2022/03/08 12:31:32;;;;;;;;;;;9.20;14.40;;;;;;5032353;28;19935;-70
2022/03/08 12:34:02;;;;;;;;;;;9.20;14.70;;;;;;5033343;28;20020;-70
2022/03/08 12:36:28;;;;;;;;;;;9.30;14.20;;;;;;5036405;28;19925;-70
2022/03/08 12:38:55;;;;;;;;;;;9.30;14.90;;;;;;5033639;28;20032;-71
2022/03/08 12:41:24;;;;;;;;;;;9.60;13.90;;;;;;5034164;28;20307;-70
2022/03/08 12:43:57;;;;;;;;;;;9.50;13.40;;;;;;5032130;28;19956;-70
2022/03/08 12:46:24;;;;;;;;;;;9.80;13.80;;;;;;5033237;28;20004;-70
2022/03/08 12:48:54;;;;;;;;;;;10.00;12.50;;;;;;5031693;28;19935;-70
2022/03/08 12:51:22;;;;;;;;;;;10.10;12.30;;;;;;5032861;28;20402;-69
2022/03/08 12:53:53;;;;;;;;;;;10.20;12.60;;;;;;5032159;28;19932;-70
2022/03/08 12:56:21;;;;;;;;;;;10.10;11.90;;;;;;5031262;28;20012;-70
2022/03/08 12:58:47;;;;;;;;;;;9.90;12.90;;;;;;5032060;28;19971;-72
2022/03/08 13:01:14;;;;;;;;;;;9.80;12.60;;;;;;5032859;28;20017;-70
2022/03/08 13:03:42;;;;;;;;;;;9.80;13.20;;;;;;5032337;28;19925;-70
2022/03/08 13:06:11;;;;;;;;;;;10.00;11.60;;;;;;5013604;28;19932;-70
2022/03/08 13:08:38;;;;;;;;;;;9.80;12.00;;;;;;5013057;28;19932;-71
2022/03/08 13:11:06;;;;;;;;;;;9.80;12.30;;;;;;5035456;28;19971;-71
2022/03/08 13:13:33;;;;;;;;;;;9.90;12.30;;;;;;5031623;28;19924;-70
2022/03/08 13:15:59;;;;;;;;;;;10.00;11.90;;;;;;5032551;28;19932;-71
2022/03/08 13:18:27;;;;;;;;;;;10.10;11.70;;;;;;5033053;28;20016;-71
2022/03/08 13:20:54;;;;;;;;;;;10.20;11.60;;;;;;5030769;28;19929;-70
2022/03/08 13:23:23;;;;;;;;;;;10.30;11.40;;;;;;5032788;28;19925;-70
2022/03/08 13:25:51;;;;;;;;;;;10.50;12.00;;;;;;5030181;28;19932;-71
2022/03/08 13:28:18;;;;;;;;;;;10.50;10.70;;;;;;5031957;28;19931;-70
2022/03/08 13:30:46;;;;;;;;;;;10.60;11.10;;;;;;5031731;28;20016;-70
2022/03/08 13:33:14;;;;;;;;;;;10.70;10.80;;;;;;5033074;28;19957;-70
2022/03/08 13:35:42;;;;;;;;;;;10.80;10.10;;;;;;5031893;28;19952;-70
2022/03/08 13:38:09;;;;;;;;;;;10.80;10.00;;;;;;5032769;28;19925;-70
2022/03/08 13:40:38;;;;;;;;;;;10.80;10.00;;;;;;5030884;28;19925;-70
2022/03/08 13:43:05;;;;;;;;;;;10.80;10.00;;;;;;5032661;28;20020;-70
2022/03/08 13:45:32;;;;;;;;;;;10.60;10.30;;;;;;5032170;28;19924;-70
2022/03/08 13:47:59;;;;;;;;;;;10.70;9.80;;;;;;5034445;28;19968;-70
2022/03/08 13:50:27;;;;;;;;;;;10.70;10.00;;;;;;5032892;28;19975;-70
2022/03/08 13:52:55;;;;;;;;;;;10.50;10.50;;;;;;5032529;28;19929;-70
2022/03/08 13:55:29;;;;;;;;;;;10.70;10.60;;;;;;5030758;28;20019;-70
2022/03/08 13:57:58;;;;;;;;;;;10.70;10.00;;;;;;5033623;28;19925;-72
2022/03/08 14:00:28;;;;;;;;;;;10.60;10.70;;;;;;5031538;28;19999;-75
2022/03/08 14:02:56;;;;;;;;;;;10.70;10.80;;;;;;5032436;28;19925;-74
2022/03/08 14:05:22;;;;;;;;;;;10.80;11.70;;;;;;5030918;28;19925;-70
2022/03/08 14:07:56;;;;;;;;;;;10.90;10.50;;;;;;5032463;28;19926;-70
2022/03/08 14:10:23;;;;;;;;;;;10.90;9.70;;;;;;5030186;28;20300;-70
2022/03/08 14:12:51;;;;;;;;;;;11.00;9.40;;;;;;5031372;28;20062;-70
2022/03/08 14:15:19;;;;;;;;;;;11.00;9.00;;;;;;5030658;28;19925;-70
2022/03/08 14:17:46;;;;;;;;;;;11.10;8.40;;;;;;5027478;28;19932;-70
2022/03/08 14:20:14;;;;;;;;;;;11.10;8.50;;;;;;5029757;28;19925;-70
2022/03/08 14:22:55;;;;;;;;;;;11.10;8.20;;;;;;5031700;28;19929;-70
2022/03/08 14:25:22;;;;;;;;;;;11.00;8.20;;;;;;5032859;28;19925;-70
2022/03/08 14:27:52;;;;;;;;;;;11.10;8.80;;;;;;5031990;28;20032;-70